Time;durP1;ratioP1;P1;durP2;ratioP2;P2;SDS_P1;SDS_P2;PMS_P1;PMS_P2;Temp;Humidity;BMP_temperature;BMP_pressure;BME280_temperature;BME280_humidity;BME280_pressure;Samples;Min_cycle;Max_cycle;Signal;HPM_P1;HPM_P2
2023/12/06 00:02:59;;;;;;;19.08;9.65;;;;;;;;;;6210656;28;20041;-79
2023/12/06 00:06:01;;;;;;;20.45;8.95;;;;;;;;;;6214141;28;20132;-78
2023/12/06 00:09:03;;;;;;;16.98;8.02;;;;;;;;;;6208273;28;20046;-80
2023/12/06 00:12:05;;;;;;;18.38;9.10;;;;;;;;;;6214298;28;20507;-80
2023/12/06 00:15:07;;;;;;;21.48;9.95;;;;;;;;;;6208569;28;20068;-79
2023/12/06 00:18:09;;;;;;;17.77;8.20;;;;;;;;;;6197923;28;20054;-78
2023/12/06 00:21:11;;;;;;;22.30;9.50;;;;;;;;;;6211735;28;20459;-77
2023/12/06 00:24:14;;;;;;;22.55;11.00;;;;;;;;;;6203406;28;20052;-78
2023/12/06 00:27:15;;;;;;;18.83;9.20;;;;;;;;;;6208784;28;20046;-79
2023/12/06 00:30:17;;;;;;;19.88;9.05;;;;;;;;;;6208311;28;20042;-80
2023/12/06 00:33:19;;;;;;;20.67;9.88;;;;;;;;;;6206448;28;20053;-79
2023/12/06 00:36:21;;;;;;;41.80;14.20;;;;;;;;;;6213698;28;20050;-80
2023/12/06 00:39:23;;;;;;;28.08;11.18;;;;;;;;;;6208253;28;20042;-80
2023/12/06 00:42:24;;;;;;;29.10;11.48;;;;;;;;;;6214611;28;20068;-78
2023/12/06 00:45:26;;;;;;;17.42;8.05;;;;;;;;;;6207799;28;20779;-80
2023/12/06 00:48:28;;;;;;;17.08;7.22;;;;;;;;;;6206234;28;20087;-77
2023/12/06 00:51:30;;;;;;;16.55;7.68;;;;;;;;;;6209308;28;20046;-80
2023/12/06 00:54:32;;;;;;;18.15;7.57;;;;;;;;;;6206752;28;20050;-79
2023/12/06 00:57:33;;;;;;;18.33;7.97;;;;;;;;;;6207133;28;20056;-77
2023/12/06 01:00:35;;;;;;;22.83;9.48;;;;;;;;;;6186484;28;20046;-79
2023/12/06 01:03:39;;;;;;;20.92;7.30;;;;;;;;;;6224791;28;20113;-78
2023/12/06 01:06:41;;;;;;;23.95;9.52;;;;;;;;;;6200248;28;20062;-77
2023/12/06 01:09:43;;;;;;;22.85;9.85;;;;;;;;;;6207355;28;20041;-78
2023/12/06 01:12:45;;;;;;;27.17;9.68;;;;;;;;;;6206497;28;20419;-80
2023/12/06 01:15:48;;;;;;;24.02;9.55;;;;;;;;;;6207015;28;20271;-77
2023/12/06 01:18:50;;;;;;;19.40;8.23;;;;;;;;;;6206691;28;20037;-78
2023/12/06 01:21:51;;;;;;;13.68;5.57;;;;;;;;;;6208966;28;20079;-79
2023/12/06 01:24:59;;;;;;;14.07;6.63;;;;;;;;;;6190195;28;20057;-78
2023/12/06 01:28:01;;;;;;;12.52;5.35;;;;;;;;;;6205697;28;20050;-77
2023/12/06 01:31:03;;;;;;;10.60;4.80;;;;;;;;;;6205377;28;20050;-79
2023/12/06 01:34:05;;;;;;;21.67;7.72;;;;;;;;;;6207671;28;20045;-78
2023/12/06 01:37:07;;;;;;;18.63;7.70;;;;;;;;;;6188805;28;20062;-79
2023/12/06 01:40:09;;;;;;;14.02;6.50;;;;;;;;;;6209969;28;20127;-78
2023/12/06 01:43:11;;;;;;;9.93;4.53;;;;;;;;;;6188344;28;20054;-79
2023/12/06 01:46:13;;;;;;;7.80;3.45;;;;;;;;;;6205052;28;20057;-77
2023/12/06 01:49:15;;;;;;;7.20;3.65;;;;;;;;;;6219225;28;20038;-77
2023/12/06 01:52:17;;;;;;;7.68;3.85;;;;;;;;;;6211337;28;20069;-78
2023/12/06 01:55:19;;;;;;;8.40;4.28;;;;;;;;;;6202282;28;20054;-80
2023/12/06 01:58:22;;;;;;;8.05;3.72;;;;;;;;;;6207750;28;20101;-79
2023/12/06 02:01:24;;;;;;;7.53;3.60;;;;;;;;;;6204628;28;20050;-77
2023/12/06 02:04:26;;;;;;;7.68;3.75;;;;;;;;;;6188881;28;20180;-77
2023/12/06 02:07:29;;;;;;;9.00;3.38;;;;;;;;;;6206532;28;20065;-78
2023/12/06 02:10:31;;;;;;;21.80;6.60;;;;;;;;;;6204048;28;20914;-79
2023/12/06 02:13:33;;;;;;;19.88;7.03;;;;;;;;;;6206692;28;20462;-80
2023/12/06 02:16:35;;;;;;;49.58;12.18;;;;;;;;;;6181833;28;20049;-79
2023/12/06 02:19:38;;;;;;;10.13;4.68;;;;;;;;;;6210579;28;20106;-79
2023/12/06 02:22:40;;;;;;;7.23;4.07;;;;;;;;;;6212601;28;20058;-78
2023/12/06 02:25:42;;;;;;;7.57;4.25;;;;;;;;;;6210542;28;20050;-77
2023/12/06 02:28:43;;;;;;;8.90;3.97;;;;;;;;;;6212500;28;20608;-77
2023/12/06 02:31:45;;;;;;;8.13;4.10;;;;;;;;;;6207062;28;20246;-79
2023/12/06 02:34:50;;;;;;;24.25;9.82;;;;;;;;;;6203797;28;20042;-77
2023/12/06 02:37:54;;;;;;;14.85;6.40;;;;;;;;;;6220680;28;20059;-78
2023/12/06 02:40:58;;;;;;;13.88;5.72;;;;;;;;;;6201658;28;20045;-78
2023/12/06 02:44:00;;;;;;;10.20;4.75;;;;;;;;;;6212834;28;20038;-79
2023/12/06 02:47:02;;;;;;;9.40;4.50;;;;;;;;;;6202568;28;20054;-77
2023/12/06 02:50:04;;;;;;;9.43;4.45;;;;;;;;;;6206551;28;20086;-78
2023/12/06 02:53:06;;;;;;;11.13;5.03;;;;;;;;;;6204277;28;20055;-80
2023/12/06 02:56:08;;;;;;;9.07;5.07;;;;;;;;;;6209301;28;20050;-79
2023/12/06 02:59:10;;;;;;;12.20;4.78;;;;;;;;;;6194027;28;20065;-79
2023/12/06 03:02:12;;;;;;;11.50;4.40;;;;;;;;;;6208296;28;20120;-80
2023/12/06 03:05:13;;;;;;;11.02;4.70;;;;;;;;;;6223125;28;20057;-79
2023/12/06 03:08:15;;;;;;;9.90;4.78;;;;;;;;;;6208118;28;20046;-78
2023/12/06 03:11:17;;;;;;;12.98;5.22;;;;;;;;;;6210557;28;20045;-80
2023/12/06 03:14:19;;;;;;;13.70;5.45;;;;;;;;;;6210652;28;20057;-80
2023/12/06 03:17:20;;;;;;;10.55;4.65;;;;;;;;;;6217529;28;20582;-78
2023/12/06 03:20:22;;;;;;;11.00;4.68;;;;;;;;;;6214018;28;20062;-77
2023/12/06 03:23:24;;;;;;;12.25;5.22;;;;;;;;;;6205826;28;20470;-78
2023/12/06 03:26:26;;;;;;;11.05;4.75;;;;;;;;;;6192919;28;20054;-76
2023/12/06 03:29:28;;;;;;;10.52;5.15;;;;;;;;;;6212653;28;20069;-78
2023/12/06 03:32:29;;;;;;;12.80;5.03;;;;;;;;;;6195167;28;20053;-79
2023/12/06 03:35:31;;;;;;;12.23;5.68;;;;;;;;;;6220680;28;20407;-79
2023/12/06 03:38:33;;;;;;;10.07;4.65;;;;;;;;;;6210729;28;20052;-79
2023/12/06 03:41:35;;;;;;;10.13;4.88;;;;;;;;;;6216823;28;20099;-80
2023/12/06 03:44:36;;;;;;;11.05;4.55;;;;;;;;;;6207882;28;20061;-78
2023/12/06 03:47:38;;;;;;;10.75;4.72;;;;;;;;;;6201829;28;20495;-78
2023/12/06 03:50:40;;;;;;;14.00;5.00;;;;;;;;;;6202191;28;20356;-80
2023/12/06 03:53:43;;;;;;;10.68;4.65;;;;;;;;;;6203685;28;20702;-77
2023/12/06 03:56:45;;;;;;;12.18;4.72;;;;;;;;;;6205557;28;20178;-78
2023/12/06 03:59:46;;;;;;;11.35;5.28;;;;;;;;;;6206160;28;20042;-80
2023/12/06 04:02:48;;;;;;;11.25;4.95;;;;;;;;;;6207561;28;20503;-79
2023/12/06 04:05:50;;;;;;;11.80;5.57;;;;;;;;;;6189652;28;20041;-77
2023/12/06 04:08:51;;;;;;;9.98;3.92;;;;;;;;;;6209549;28;20420;-78
2023/12/06 04:11:54;;;;;;;9.25;4.35;;;;;;;;;;6209702;28;20061;-80
2023/12/06 04:14:55;;;;;;;9.55;4.13;;;;;;;;;;6210308;28;20459;-78
2023/12/06 04:17:57;;;;;;;9.00;4.22;;;;;;;;;;6191520;28;20392;-78
2023/12/06 04:20:59;;;;;;;7.32;3.30;;;;;;;;;;6203656;28;20046;-80
2023/12/06 04:24:01;;;;;;;8.75;3.63;;;;;;;;;;6200618;28;20050;-80
2023/12/06 04:27:03;;;;;;;7.95;3.80;;;;;;;;;;6197639;28;20049;-78
2023/12/06 04:30:05;;;;;;;6.75;3.35;;;;;;;;;;6222502;28;20375;-77
2023/12/06 04:33:07;;;;;;;5.63;2.85;;;;;;;;;;6223540;28;20054;-79
2023/12/06 04:36:09;;;;;;;4.80;2.50;;;;;;;;;;6203759;28;20057;-79
2023/12/06 04:39:11;;;;;;;4.47;2.60;;;;;;;;;;6188643;28;20050;-78
2023/12/06 04:42:14;;;;;;;5.97;3.20;;;;;;;;;;6201284;28;20190;-77
2023/12/06 04:45:16;;;;;;;4.87;2.83;;;;;;;;;;6205644;28;20050;-78
2023/12/06 04:48:17;;;;;;;6.47;2.78;;;;;;;;;;6200884;28;20125;-79
2023/12/06 04:51:19;;;;;;;4.53;2.50;;;;;;;;;;6199137;28;20060;-77
2023/12/06 04:54:23;;;;;;;5.50;2.67;;;;;;;;;;6206138;28;20068;-77
2023/12/06 04:57:25;;;;;;;4.78;2.38;;;;;;;;;;6204751;28;20046;-78
2023/12/06 05:00:27;;;;;;;4.85;2.92;;;;;;;;;;6204531;28;20049;-80
2023/12/06 05:03:29;;;;;;;4.60;3.15;;;;;;;;;;6206037;28;20647;-79
2023/12/06 05:06:31;;;;;;;6.30;3.05;;;;;;;;;;6207704;28;20070;-78
2023/12/06 05:09:33;;;;;;;6.07;3.20;;;;;;;;;;6202190;28;20050;-78
2023/12/06 05:12:35;;;;;;;4.47;2.60;;;;;;;;;;6207462;28;20046;-79
2023/12/06 05:15:36;;;;;;;5.20;3.30;;;;;;;;;;6188716;28;20068;-79
2023/12/06 05:18:39;;;;;;;4.03;2.65;;;;;;;;;;6201595;28;20182;-79
2023/12/06 05:21:40;;;;;;;5.88;3.13;;;;;;;;;;6205246;28;20057;-79
2023/12/06 05:24:42;;;;;;;5.30;3.10;;;;;;;;;;6202436;28;20038;-78
2023/12/06 05:27:44;;;;;;;5.10;2.95;;;;;;;;;;6202410;28;20056;-78
2023/12/06 05:30:46;;;;;;;4.18;2.65;;;;;;;;;;6205182;28;20042;-78
2023/12/06 05:33:48;;;;;;;5.95;2.92;;;;;;;;;;6204135;28;20366;-79
2023/12/06 05:36:50;;;;;;;5.45;3.40;;;;;;;;;;6189128;28;20049;-78
2023/12/06 05:39:52;;;;;;;7.50;3.15;;;;;;;;;;6205214;28;20048;-77
2023/12/06 05:42:54;;;;;;;7.10;3.45;;;;;;;;;;6204389;28;20056;-79
2023/12/06 05:45:56;;;;;;;4.90;2.83;;;;;;;;;;6205491;28;20077;-79
2023/12/06 05:48:58;;;;;;;9.02;4.43;;;;;;;;;;6208742;28;20528;-79
2023/12/06 05:52:00;;;;;;;6.43;3.28;;;;;;;;;;6200026;28;20049;-78
2023/12/06 05:55:02;;;;;;;6.30;3.50;;;;;;;;;;6201756;28;20084;-79
2023/12/06 05:58:05;;;;;;;5.95;2.97;;;;;;;;;;6202025;28;20046;-78
2023/12/06 06:01:08;;;;;;;6.43;2.92;;;;;;;;;;6187346;28;20601;-80
2023/12/06 06:04:09;;;;;;;5.43;3.20;;;;;;;;;;6208737;28;20053;-81
2023/12/06 06:07:11;;;;;;;5.68;2.90;;;;;;;;;;6208184;28;20420;-80
2023/12/06 06:10:14;;;;;;;4.60;3.15;;;;;;;;;;6209227;28;20068;-79
2023/12/06 06:13:16;;;;;;;4.73;2.77;;;;;;;;;;6210370;28;20056;-79
2023/12/06 06:16:18;;;;;;;5.70;2.85;;;;;;;;;;6198255;28;20038;-80
2023/12/06 06:19:19;;;;;;;4.53;2.33;;;;;;;;;;6208679;28;20491;-80
2023/12/06 06:22:21;;;;;;;6.25;3.50;;;;;;;;;;6223626;28;20077;-78
2023/12/06 06:25:24;;;;;;;6.18;3.10;;;;;;;;;;6213851;28;20046;-77
2023/12/06 06:28:25;;;;;;;7.83;3.53;;;;;;;;;;6196098;28;20050;-79
2023/12/06 06:31:28;;;;;;;8.88;4.10;;;;;;;;;;6210297;28;20066;-80
2023/12/06 06:34:29;;;;;;;10.57;4.78;;;;;;;;;;6214287;28;20050;-77
2023/12/06 06:37:31;;;;;;;11.60;4.43;;;;;;;;;;6213792;28;20116;-79
2023/12/06 06:40:36;;;;;;;8.20;4.32;;;;;;;;;;6212722;28;20045;-78
2023/12/06 06:43:38;;;;;;;9.10;4.38;;;;;;;;;;6199829;28;20034;-79
2023/12/06 06:46:39;;;;;;;11.02;5.25;;;;;;;;;;6208380;28;20057;-77
2023/12/06 06:49:41;;;;;;;11.32;4.95;;;;;;;;;;6212130;28;20046;-79
2023/12/06 06:52:43;;;;;;;11.73;5.28;;;;;;;;;;6207209;28;20050;-78
2023/12/06 06:55:45;;;;;;;10.63;5.13;;;;;;;;;;6211589;28;20082;-80
2023/12/06 06:58:46;;;;;;;13.80;6.18;;;;;;;;;;6212001;28;20060;-79
2023/12/06 07:01:48;;;;;;;11.52;6.30;;;;;;;;;;6202323;28;20046;-78
2023/12/06 07:04:51;;;;;;;15.75;5.88;;;;;;;;;;6213036;28;20038;-79
2023/12/06 07:07:53;;;;;;;21.57;7.50;;;;;;;;;;6208726;28;20057;-78
2023/12/06 07:10:57;;;;;;;19.05;8.55;;;;;;;;;;6207132;28;20448;-81
2023/12/06 07:13:59;;;;;;;21.45;9.52;;;;;;;;;;6200121;28;20643;-80
2023/12/06 07:17:04;;;;;;;19.67;8.80;;;;;;;;;;6212527;28;20072;-79
2023/12/06 07:20:07;;;;;;;22.80;10.02;;;;;;;;;;6212405;28;20048;-79
2023/12/06 07:23:08;;;;;;;22.65;9.32;;;;;;;;;;6209922;28;20813;-81
2023/12/06 07:26:10;;;;;;;24.13;10.13;;;;;;;;;;6211284;28;20049;-78
2023/12/06 07:29:12;;;;;;;31.27;12.38;;;;;;;;;;6210540;28;20481;-79
2023/12/06 07:32:14;;;;;;;24.65;10.52;;;;;;;;;;6211819;28;20116;-77
2023/12/06 07:35:16;;;;;;;29.48;10.38;;;;;;;;;;6203732;28;20081;-79
2023/12/06 07:38:18;;;;;;;31.55;12.68;;;;;;;;;;6205287;28;20113;-79
2023/12/06 07:41:19;;;;;;;23.50;9.57;;;;;;;;;;6228825;28;20045;-79
2023/12/06 07:44:22;;;;;;;31.90;11.73;;;;;;;;;;6210180;28;20133;-79
2023/12/06 07:47:23;;;;;;;29.73;11.75;;;;;;;;;;6205267;28;20049;-79
2023/12/06 07:50:27;;;;;;;23.83;10.90;;;;;;;;;;6196331;28;20046;-79
2023/12/06 07:53:30;;;;;;;25.38;11.05;;;;;;;;;;6209023;28;20056;-79
2023/12/06 07:56:33;;;;;;;27.08;11.10;;;;;;;;;;6209416;28;20107;-79
2023/12/06 07:59:34;;;;;;;23.42;9.63;;;;;;;;;;6208279;28;20045;-78
2023/12/06 08:02:39;;;;;;;21.02;9.38;;;;;;;;;;6206857;28;20049;-77
2023/12/06 08:05:41;;;;;;;27.92;9.88;;;;;;;;;;6215729;28;20121;-76
2023/12/06 08:08:43;;;;;;;23.48;11.02;;;;;;;;;;6212264;28;20053;-77
2023/12/06 08:11:46;;;;;;;21.00;9.63;;;;;;;;;;6207224;28;20078;-81
2023/12/06 08:14:48;;;;;;;20.75;9.23;;;;;;;;;;6210629;28;20049;-78
2023/12/06 08:17:51;;;;;;;27.48;10.98;;;;;;;;;;6195674;28;20049;-79
2023/12/06 08:20:53;;;;;;;22.98;8.55;;;;;;;;;;6202517;28;20045;-79
2023/12/06 08:23:55;;;;;;;17.05;8.13;;;;;;;;;;6189253;28;20496;-79
2023/12/06 08:26:56;;;;;;;24.33;10.38;;;;;;;;;;6210023;28;20051;-78
2023/12/06 08:29:58;;;;;;;24.13;10.10;;;;;;;;;;6205381;28;20038;-79
2023/12/06 08:33:00;;;;;;;20.95;9.48;;;;;;;;;;6205231;28;20096;-79
2023/12/06 08:36:02;;;;;;;24.45;9.52;;;;;;;;;;6208383;28;20037;-78
2023/12/06 08:39:04;;;;;;;21.20;9.40;;;;;;;;;;6213402;28;20046;-78
2023/12/06 08:42:06;;;;;;;19.55;8.02;;;;;;;;;;6213743;28;20063;-78
2023/12/06 08:45:09;;;;;;;18.70;7.63;;;;;;;;;;6204725;28;20053;-79
2023/12/06 08:48:11;;;;;;;22.60;9.07;;;;;;;;;;6199768;28;20077;-81
2023/12/06 08:51:13;;;;;;;22.73;8.57;;;;;;;;;;6207865;28;20503;-80
2023/12/06 08:54:15;;;;;;;18.90;8.15;;;;;;;;;;6207339;28;20052;-79
2023/12/06 08:57:17;;;;;;;25.88;9.57;;;;;;;;;;6187074;28;20124;-83
2023/12/06 09:00:19;;;;;;;20.17;8.32;;;;;;;;;;6205411;28;20057;-80
2023/12/06 09:03:21;;;;;;;25.13;8.88;;;;;;;;;;6204076;28;20556;-79
2023/12/06 09:06:22;;;;;;;21.80;9.18;;;;;;;;;;6204039;28;20143;-80
2023/12/06 09:09:25;;;;;;;25.23;9.20;;;;;;;;;;6207794;28;20049;-80
2023/12/06 09:12:27;;;;;;;24.27;10.30;;;;;;;;;;6207836;28;20057;-79
2023/12/06 09:15:28;;;;;;;26.27;10.50;;;;;;;;;;6210032;28;20046;-79
2023/12/06 09:18:33;;;;;;;28.30;9.95;;;;;;;;;;6192802;28;20127;-79
2023/12/06 09:21:46;;;;;;;28.75;11.45;;;;;;;;;;6209560;28;20077;-78
2023/12/06 09:24:48;;;;;;;28.10;10.27;;;;;;;;;;6202746;28;20216;-80
2023/12/06 09:27:50;;;;;;;21.13;8.77;;;;;;;;;;6189050;28;20046;-80
2023/12/06 09:30:53;;;;;;;24.17;9.97;;;;;;;;;;6211385;28;20117;-80
2023/12/06 09:33:55;;;;;;;27.60;10.88;;;;;;;;;;6190638;28;20038;-80
2023/12/06 09:36:58;;;;;;;26.25;10.23;;;;;;;;;;6206511;28;20129;-78
2023/12/06 09:40:00;;;;;;;24.27;9.47;;;;;;;;;;6210648;28;20050;-81
2023/12/06 09:43:02;;;;;;;27.77;10.27;;;;;;;;;;6199646;28;20060;-81
2023/12/06 09:46:05;;;;;;;28.73;10.73;;;;;;;;;;6210926;28;20504;-82
2023/12/06 09:49:07;;;;;;;27.27;11.90;;;;;;;;;;6205716;28;20034;-82
2023/12/06 09:52:13;;;;;;;26.38;9.45;;;;;;;;;;6211639;28;20164;-83
2023/12/06 09:55:18;;;;;;;23.52;10.20;;;;;;;;;;6206588;28;20038;-83
2023/12/06 09:58:20;;;;;;;26.88;9.65;;;;;;;;;;6208900;28;20061;-82
2023/12/06 10:01:22;;;;;;;26.10;9.57;;;;;;;;;;6222486;28;20134;-82
2023/12/06 10:04:24;;;;;;;24.95;9.50;;;;;;;;;;6214734;28;20077;-82
2023/12/06 10:07:33;;;;;;;28.67;10.43;;;;;;;;;;6206495;28;20056;-82
2023/12/06 10:10:35;;;;;;;32.47;11.55;;;;;;;;;;6183802;28;20137;-80
2023/12/06 10:13:38;;;;;;;25.20;10.20;;;;;;;;;;6212307;28;20101;-80
2023/12/06 10:16:41;;;;;;;27.48;10.57;;;;;;;;;;6198590;28;20050;-82
2023/12/06 10:19:42;;;;;;;26.73;10.10;;;;;;;;;;6211734;28;20048;-82
2023/12/06 10:22:45;;;;;;;27.25;10.23;;;;;;;;;;6210422;28;20054;-81
2023/12/06 10:25:47;;;;;;;26.73;10.67;;;;;;;;;;6210748;28;20053;-81
2023/12/06 10:28:49;;;;;;;28.23;10.07;;;;;;;;;;6218558;28;20069;-81
2023/12/06 10:31:51;;;;;;;26.13;10.48;;;;;;;;;;6225543;28;20475;-78
2023/12/06 10:34:57;;;;;;;;;;;;;;;;;;6213177;28;20064;-79
2023/12/06 10:37:59;;;;;;;27.25;9.48;;;;;;;;;;6203940;28;19926;-79
2023/12/06 10:41:03;;;;;;;32.17;11.07;;;;;;;;;;6213302;28;20054;-77
2023/12/06 10:44:07;;;;;;;28.15;10.32;;;;;;;;;;6202334;28;20103;-82
2023/12/06 10:47:11;;;;;;;31.83;11.15;;;;;;;;;;6212891;28;20911;-81
2023/12/06 10:50:15;;;;;;;23.70;8.95;;;;;;;;;;6213280;28;20045;-80
2023/12/06 10:53:17;;;;;;;34.47;12.23;;;;;;;;;;6221788;28;20046;-81
2023/12/06 10:56:20;;;;;;;30.93;10.60;;;;;;;;;;6209222;28;20049;-80
2023/12/06 10:59:28;;;;;;;38.17;12.18;;;;;;;;;;6210532;28;20057;-78
2023/12/06 11:02:30;;;;;;;30.88;11.32;;;;;;;;;;6205273;28;20050;-79
2023/12/06 11:05:38;;;;;;;34.47;12.73;;;;;;;;;;6208589;28;20065;-80
2023/12/06 11:09:03;;;;;;;27.50;11.63;;;;;;;;;;6202229;28;20075;-80
2023/12/06 11:12:19;;;;;;;32.28;11.45;;;;;;;;;;6211036;28;20053;-79
2023/12/06 11:15:58;;;;;;;27.05;9.98;;;;;;;;;;6208476;28;20448;-79
2023/12/06 11:19:01;;;;;;;25.08;10.27;;;;;;;;;;6223836;28;20157;-79
2023/12/06 11:22:04;;;;;;;25.00;11.13;;;;;;;;;;6210469;28;20042;-77
2023/12/06 11:25:09;;;;;;;25.67;10.38;;;;;;;;;;6209538;28;20069;-78
2023/12/06 11:28:20;;;;;;;26.08;10.30;;;;;;;;;;6197921;28;20053;-78
2023/12/06 11:31:32;;;;;;;29.33;11.90;;;;;;;;;;6209217;28;20048;-79
2023/12/06 11:34:36;;;;;;;27.50;11.15;;;;;;;;;;6188398;28;20053;-79
2023/12/06 11:37:39;;;;;;;21.77;10.18;;;;;;;;;;6206373;28;20428;-80
2023/12/06 11:40:51;;;;;;;22.13;8.68;;;;;;;;;;6213534;28;20360;-80
2023/12/06 11:43:53;;;;;;;26.75;9.50;;;;;;;;;;6200476;28;20129;-80
2023/12/06 11:46:55;;;;;;;22.85;10.00;;;;;;;;;;6208662;28;20056;-81
2023/12/06 11:49:57;;;;;;;23.48;10.35;;;;;;;;;;6209620;28;20125;-79
2023/12/06 11:53:00;;;;;;;20.55;8.82;;;;;;;;;;6199847;28;20046;-81
2023/12/06 11:56:02;;;;;;;19.25;8.45;;;;;;;;;;6210778;28;20050;-82
2023/12/06 11:59:05;;;;;;;23.83;9.73;;;;;;;;;;6194896;28;20068;-80
2023/12/06 12:02:09;;;;;;;21.92;8.70;;;;;;;;;;6208764;28;20045;-82
2023/12/06 12:05:11;;;;;;;16.67;7.95;;;;;;;;;;6212639;28;20129;-78
2023/12/06 12:08:14;;;;;;;19.70;9.50;;;;;;;;;;6210577;28;20056;-79
2023/12/06 12:11:17;;;;;;;20.55;8.98;;;;;;;;;;6209876;28;20046;-79
2023/12/06 12:14:19;;;;;;;16.92;7.88;;;;;;;;;;6199106;28;20708;-79
2023/12/06 12:17:20;;;;;;;20.52;8.70;;;;;;;;;;6194390;28;20057;-79
2023/12/06 12:20:22;;;;;;;18.90;8.70;;;;;;;;;;6206276;28;20103;-81
2023/12/06 12:23:26;;;;;;;25.87;9.43;;;;;;;;;;6189105;28;20061;-81
2023/12/06 12:26:30;;;;;;;32.33;14.15;;;;;;;;;;6198580;28;20479;-79
2023/12/06 12:29:32;;;;;;;19.95;9.00;;;;;;;;;;6204941;28;20476;-81
2023/12/06 12:32:35;;;;;;;46.90;23.35;;;;;;;;;;6208189;28;20068;-78
2023/12/06 12:35:37;;;;;;;23.98;10.68;;;;;;;;;;6203342;28;20057;-77
2023/12/06 12:38:39;;;;;;;20.70;9.55;;;;;;;;;;6201876;28;20048;-78
2023/12/06 12:41:41;;;;;;;18.38;9.60;;;;;;;;;;6202187;28;20046;-76
2023/12/06 12:44:43;;;;;;;17.25;9.55;;;;;;;;;;6207171;28;20048;-79
2023/12/06 12:47:45;;;;;;;19.55;8.85;;;;;;;;;;6185219;28;20050;-79
2023/12/06 12:50:47;;;;;;;15.68;7.85;;;;;;;;;;6199214;28;20095;-77
2023/12/06 12:53:49;;;;;;;16.92;8.23;;;;;;;;;;6201406;28;20050;-78
2023/12/06 12:56:50;;;;;;;20.85;11.75;;;;;;;;;;6204632;28;20046;-77
2023/12/06 12:59:55;;;;;;;42.78;21.77;;;;;;;;;;6210873;28;20052;-77
2023/12/06 13:02:58;;;;;;;27.35;15.95;;;;;;;;;;6203360;28;20522;-78
2023/12/06 13:06:01;;;;;;;18.58;9.77;;;;;;;;;;6207874;28;20562;-79
2023/12/06 13:09:02;;;;;;;17.25;10.18;;;;;;;;;;6196023;28;20046;-76
2023/12/06 13:12:05;;;;;;;17.08;10.02;;;;;;;;;;6216052;28;20065;-78
2023/12/06 13:15:10;;;;;;;15.20;8.07;;;;;;;;;;6207879;28;20792;-78
2023/12/06 13:18:12;;;;;;;14.43;8.13;;;;;;;;;;6210919;28;20045;-78
2023/12/06 13:21:14;;;;;;;11.55;6.60;;;;;;;;;;6202328;28;20061;-77
2023/12/06 13:24:16;;;;;;;14.30;7.70;;;;;;;;;;6199238;28;20396;-78
2023/12/06 13:27:18;;;;;;;15.27;7.73;;;;;;;;;;6203426;28;20511;-77
2023/12/06 13:30:20;;;;;;;13.40;6.82;;;;;;;;;;6180152;28;20457;-78
2023/12/06 13:33:22;;;;;;;12.82;6.57;;;;;;;;;;6196830;28;20084;-78
2023/12/06 13:36:25;;;;;;;16.55;8.48;;;;;;;;;;6203242;28;20041;-79
2023/12/06 13:39:27;;;;;;;9.80;6.10;;;;;;;;;;6200796;28;20496;-78
2023/12/06 13:42:29;;;;;;;12.88;6.70;;;;;;;;;;6201737;28;20057;-78
2023/12/06 13:45:31;;;;;;;13.15;6.70;;;;;;;;;;6200880;28;20483;-77
2023/12/06 13:48:32;;;;;;;14.63;6.75;;;;;;;;;;6204667;28;20188;-79
2023/12/06 13:51:34;;;;;;;16.17;7.93;;;;;;;;;;6207439;28;20050;-76
2023/12/06 13:54:36;;;;;;;14.82;8.05;;;;;;;;;;6199819;28;20061;-77
2023/12/06 13:57:43;;;;;;;15.05;7.45;;;;;;;;;;6206738;28;20049;-77
2023/12/06 14:00:45;;;;;;;16.63;8.38;;;;;;;;;;6202989;28;20065;-79
2023/12/06 14:03:48;;;;;;;19.25;8.13;;;;;;;;;;6209048;28;20050;-79
2023/12/06 14:06:50;;;;;;;19.23;8.43;;;;;;;;;;6202986;28;20053;-78
2023/12/06 14:09:52;;;;;;;19.52;9.32;;;;;;;;;;6201880;28;21202;-77
2023/12/06 14:12:54;;;;;;;20.67;9.50;;;;;;;;;;6200342;28;20050;-76
2023/12/06 14:15:56;;;;;;;21.88;10.07;;;;;;;;;;6204969;28;20050;-78
2023/12/06 14:18:59;;;;;;;21.60;9.40;;;;;;;;;;6209669;28;20044;-78
2023/12/06 14:22:01;;;;;;;25.52;11.10;;;;;;;;;;6206039;28;20499;-78
2023/12/06 14:25:03;;;;;;;20.60;9.95;;;;;;;;;;6203438;28;20117;-77
2023/12/06 14:28:05;;;;;;;22.45;10.68;;;;;;;;;;6208731;28;20049;-79
2023/12/06 14:31:07;;;;;;;23.90;10.38;;;;;;;;;;6209389;28;20095;-79
2023/12/06 14:34:10;;;;;;;25.38;10.52;;;;;;;;;;6206044;28;20045;-78
2023/12/06 14:37:13;;;;;;;20.42;9.25;;;;;;;;;;6200302;28;20054;-78
2023/12/06 14:40:16;;;;;;;25.95;12.07;;;;;;;;;;6209542;28;20057;-77
2023/12/06 14:43:22;;;;;;;25.38;11.38;;;;;;;;;;6191687;28;20447;-77
2023/12/06 14:46:24;;;;;;;27.85;11.00;;;;;;;;;;6189952;28;20046;-76
2023/12/06 14:49:26;;;;;;;24.80;10.95;;;;;;;;;;6206569;28;20132;-79
2023/12/06 14:52:28;;;;;;;25.17;10.90;;;;;;;;;;6193285;28;20664;-80
2023/12/06 14:55:30;;;;;;;24.27;10.30;;;;;;;;;;6216135;28;20042;-80
2023/12/06 14:58:32;;;;;;;22.20;10.48;;;;;;;;;;6205513;28;20460;-78
2023/12/06 15:01:34;;;;;;;23.55;10.85;;;;;;;;;;6201837;28;20045;-77
2023/12/06 15:04:37;;;;;;;20.33;9.75;;;;;;;;;;6213211;28;20100;-78
2023/12/06 15:07:39;;;;;;;21.30;9.60;;;;;;;;;;6219102;28;20050;-78
2023/12/06 15:10:41;;;;;;;23.83;11.32;;;;;;;;;;6206582;28;20111;-79
2023/12/06 15:13:43;;;;;;;25.60;10.52;;;;;;;;;;6206005;28;20049;-80
2023/12/06 15:16:44;;;;;;;21.35;10.63;;;;;;;;;;6208422;28;20422;-77
2023/12/06 15:19:46;;;;;;;21.27;10.07;;;;;;;;;;6198653;28;20056;-78
2023/12/06 15:22:49;;;;;;;25.55;11.07;;;;;;;;;;6197254;28;20057;-77
2023/12/06 15:25:51;;;;;;;21.17;10.53;;;;;;;;;;6217015;28;20046;-77
2023/12/06 15:28:52;;;;;;;19.33;9.77;;;;;;;;;;6202440;28;20046;-77
2023/12/06 15:31:58;;;;;;;21.13;9.68;;;;;;;;;;6207123;28;20038;-78
2023/12/06 15:35:01;;;;;;;18.38;9.52;;;;;;;;;;6208856;28;20069;-78
2023/12/06 15:38:03;;;;;;;21.42;9.43;;;;;;;;;;6207849;28;20038;-79
2023/12/06 15:41:05;;;;;;;18.85;9.77;;;;;;;;;;6214393;28;20041;-78
2023/12/06 15:44:11;;;;;;;18.38;9.20;;;;;;;;;;6194151;28;20148;-77
2023/12/06 15:47:12;;;;;;;20.38;9.52;;;;;;;;;;6209006;28;20053;-79
2023/12/06 15:50:14;;;;;;;21.73;9.85;;;;;;;;;;6210329;28;20058;-77
2023/12/06 15:53:16;;;;;;;18.42;9.43;;;;;;;;;;6195795;28;20056;-77
2023/12/06 15:56:18;;;;;;;20.38;9.13;;;;;;;;;;6183143;28;20048;-79
2023/12/06 15:59:20;;;;;;;18.42;9.15;;;;;;;;;;6190930;28;20060;-80
2023/12/06 16:02:21;;;;;;;18.48;9.02;;;;;;;;;;6195407;28;20041;-78
2023/12/06 16:05:23;;;;;;;19.15;8.75;;;;;;;;;;6206715;28;20057;-77
2023/12/06 16:08:25;;;;;;;20.75;9.38;;;;;;;;;;6199788;28;20041;-79
2023/12/06 16:11:27;;;;;;;17.05;8.80;;;;;;;;;;6211647;28;20045;-79
2023/12/06 16:14:29;;;;;;;19.50;9.07;;;;;;;;;;6209462;28;20065;-80
2023/12/06 16:17:35;;;;;;;18.05;9.05;;;;;;;;;;6210872;28;20539;-79
2023/12/06 16:20:37;;;;;;;19.63;9.65;;;;;;;;;;6207192;28;20050;-78
2023/12/06 16:23:39;;;;;;;18.42;9.23;;;;;;;;;;6206676;28;20042;-79
2023/12/06 16:26:41;;;;;;;18.25;9.60;;;;;;;;;;6224063;28;20045;-79
2023/12/06 16:29:43;;;;;;;17.13;9.23;;;;;;;;;;6205908;28;20045;-79
2023/12/06 16:32:45;;;;;;;18.98;9.82;;;;;;;;;;6210033;28;20052;-78
2023/12/06 16:35:47;;;;;;;20.63;9.45;;;;;;;;;;6207966;28;20054;-76
2023/12/06 16:38:48;;;;;;;18.25;9.15;;;;;;;;;;6220778;28;20049;-78
2023/12/06 16:41:51;;;;;;;22.67;10.50;;;;;;;;;;6209181;28;20042;-79
2023/12/06 16:44:52;;;;;;;18.38;10.52;;;;;;;;;;6177084;28;20061;-78
2023/12/06 16:47:54;;;;;;;24.52;10.57;;;;;;;;;;6202683;28;20038;-79
2023/12/06 16:50:56;;;;;;;22.27;10.57;;;;;;;;;;6202967;28;20053;-78
2023/12/06 16:53:58;;;;;;;20.27;10.38;;;;;;;;;;6209779;28;20053;-76
2023/12/06 16:56:59;;;;;;;19.27;9.88;;;;;;;;;;6231748;28;20034;-77
2023/12/06 17:00:03;;;;;;;21.83;10.15;;;;;;;;;;6218778;28;20065;-77
2023/12/06 17:03:06;;;;;;;22.15;10.77;;;;;;;;;;6199145;28;20046;-78
2023/12/06 17:06:08;;;;;;;21.48;10.50;;;;;;;;;;6207574;28;20045;-78
2023/12/06 17:09:10;;;;;;;21.67;11.15;;;;;;;;;;6210027;28;20048;-76
2023/12/06 17:12:12;;;;;;;23.50;11.10;;;;;;;;;;6208194;28;20057;-78
2023/12/06 17:15:14;;;;;;;23.17;11.37;;;;;;;;;;6205666;28;20428;-78
2023/12/06 17:18:16;;;;;;;22.48;11.25;;;;;;;;;;6212709;28;20410;-76
2023/12/06 17:21:18;;;;;;;22.10;10.55;;;;;;;;;;6184675;28;20361;-76
2023/12/06 17:24:21;;;;;;;22.15;9.65;;;;;;;;;;6198213;28;20061;-78
2023/12/06 17:27:22;;;;;;;23.35;9.77;;;;;;;;;;6202578;28;20181;-76
2023/12/06 17:30:25;;;;;;;23.77;10.98;;;;;;;;;;6201361;28;20101;-79
2023/12/06 17:33:26;;;;;;;24.95;11.98;;;;;;;;;;6198394;28;20818;-78
2023/12/06 17:36:31;;;;;;;21.65;9.73;;;;;;;;;;6192329;28;20057;-77
2023/12/06 17:39:32;;;;;;;20.73;10.70;;;;;;;;;;6180761;28;20158;-76
2023/12/06 17:42:34;;;;;;;25.17;10.88;;;;;;;;;;6184406;28;20042;-79
2023/12/06 17:45:37;;;;;;;21.30;10.80;;;;;;;;;;6198042;28;20076;-78
2023/12/06 17:48:38;;;;;;;24.98;11.50;;;;;;;;;;6203504;28;20103;-77
2023/12/06 17:51:41;;;;;;;23.23;10.60;;;;;;;;;;6189162;28;20054;-77
2023/12/06 17:54:43;;;;;;;25.10;10.38;;;;;;;;;;6224896;28;20054;-79
2023/12/06 17:57:45;;;;;;;23.58;11.32;;;;;;;;;;6210220;28;20068;-80